createdAt,value
2023-03-30T00:01:12.261Z,87.91
2023-03-30T00:03:43.476Z,87.00
2023-03-30T00:06:13.376Z,87.90
2023-03-30T00:08:40.347Z,88.16
2023-03-30T00:11:17.558Z,87.38
2023-03-30T00:13:45.315Z,86.92
2023-03-30T00:16:14.299Z,86.93
2023-03-30T00:18:41.662Z,86.93
2023-03-30T00:21:12.074Z,87.42
2023-03-30T00:23:40.227Z,86.13
2023-03-30T00:26:09.041Z,86.34
2023-03-30T00:28:36.345Z,85.94
2023-03-30T00:31:03.497Z,86.40
2023-03-30T00:33:44.715Z,86.51
2023-03-30T00:36:14.021Z,86.53
2023-03-30T00:38:41.370Z,86.33
2023-03-30T00:41:09.697Z,86.22
2023-03-30T00:44:02.081Z,85.67
2023-03-30T00:46:31.675Z,86.64
2023-03-30T00:49:05.576Z,86.16
2023-03-30T00:51:38.338Z,85.61
2023-03-30T00:54:18.592Z,86.36
2023-03-30T00:56:46.223Z,85.44
2023-03-30T00:59:13.632Z,85.39
2023-03-30T01:01:41.986Z,86.29
2023-03-30T01:04:10.251Z,86.49
2023-03-30T01:06:40.598Z,86.88
2023-03-30T01:09:08.918Z,86.02
2023-03-30T01:11:35.990Z,86.49
2023-03-30T01:14:06.526Z,86.16
2023-03-30T01:16:36.511Z,86.55
2023-03-30T01:19:43.920Z,86.20
2023-03-30T01:22:50.403Z,86.46
2023-03-30T01:25:57.692Z,86.18
2023-03-30T01:28:50.375Z,85.99
2023-03-30T01:31:35.841Z,86.03
2023-03-30T01:34:20.881Z,86.96
2023-03-30T01:37:13.365Z,86.18
2023-03-30T01:39:45.344Z,86.87
2023-03-30T01:42:46.581Z,87.77
2023-03-30T01:45:19.976Z,87.90
2023-03-30T01:48:19.506Z,87.93
2023-03-30T01:50:52.941Z,88.65
2023-03-30T01:53:31.440Z,89.00
2023-03-30T01:56:06.970Z,88.96
2023-03-30T01:58:47.434Z,89.84
2023-03-30T02:01:18.234Z,89.15
2023-03-30T02:03:49.784Z,89.44
2023-03-30T02:06:24.869Z,89.95
2023-03-30T02:08:54.877Z,90.13
2023-03-30T02:11:24.519Z,89.93
2023-03-30T02:13:53.898Z,89.26
2023-03-30T02:16:29.329Z,89.51
2023-03-30T02:18:58.015Z,89.40
2023-03-30T02:21:26.118Z,89.57
2023-03-30T02:23:56.136Z,89.69
2023-03-30T02:26:23.504Z,90.49
2023-03-30T02:28:52.352Z,89.99
2023-03-30T02:31:19.667Z,89.53
2023-03-30T02:34:02.899Z,90.35
2023-03-30T02:36:38.716Z,89.52
2023-03-30T02:39:31.567Z,89.91
2023-03-30T02:42:20.517Z,89.66
2023-03-30T02:45:19.131Z,89.98
2023-03-30T02:48:06.220Z,90.02
2023-03-30T02:50:51.921Z,89.91
2023-03-30T02:53:49.507Z,90.52
2023-03-30T02:56:42.392Z,91.08
2023-03-30T02:59:14.345Z,90.45
2023-03-30T03:02:04.743Z,90.23
2023-03-30T03:04:34.302Z,90.55
2023-03-30T03:07:02.801Z,90.28
2023-03-30T03:09:30.242Z,90.14
2023-03-30T03:11:57.122Z,90.55
2023-03-30T03:14:26.747Z,90.30
2023-03-30T03:16:55.137Z,90.61
2023-03-30T03:19:21.973Z,90.35
2023-03-30T03:21:49.164Z,90.16
2023-03-30T03:24:17.592Z,90.79
2023-03-30T03:26:44.490Z,91.01
2023-03-30T03:29:11.461Z,90.62
2023-03-30T03:31:38.372Z,91.07
2023-03-30T03:34:05.345Z,91.06
2023-03-30T03:36:33.051Z,90.71
2023-03-30T03:38:59.910Z,90.68
2023-03-30T03:41:26.792Z,91.02
2023-03-30T03:43:53.677Z,91.16
2023-03-30T03:46:20.757Z,91.76
2023-03-30T03:48:47.599Z,91.42
2023-03-30T03:51:14.672Z,91.89
2023-03-30T03:53:41.845Z,90.66
2023-03-30T03:56:08.879Z,91.06
2023-03-30T03:58:35.997Z,90.29
2023-03-30T04:01:03.664Z,91.28
2023-03-30T04:03:30.855Z,90.10
2023-03-30T04:06:02.675Z,90.11
2023-03-30T04:08:29.806Z,90.10
2023-03-30T04:10:56.822Z,90.90
2023-03-30T04:13:23.623Z,91.17
2023-03-30T04:15:50.761Z,90.54
2023-03-30T04:18:20.550Z,89.53
2023-03-30T04:20:49.686Z,89.20
2023-03-30T04:23:22.110Z,89.66
2023-03-30T04:25:49.206Z,89.30
2023-03-30T04:28:16.135Z,89.63
2023-03-30T04:30:45.830Z,89.92
2023-03-30T04:33:14.877Z,89.70
2023-03-30T04:35:41.758Z,89.57
2023-03-30T04:38:08.792Z,89.33
2023-03-30T04:40:35.773Z,89.97
2023-03-30T04:43:04.120Z,90.18
2023-03-30T04:45:31.547Z,89.99
2023-03-30T04:48:01.587Z,89.23
2023-03-30T04:50:28.378Z,89.51
2023-03-30T04:52:55.152Z,89.43
2023-03-30T04:55:22.198Z,88.98
2023-03-30T04:57:48.927Z,88.78
2023-03-30T05:00:16.467Z,89.38
2023-03-30T05:02:43.439Z,89.67
2023-03-30T05:05:10.684Z,89.16
2023-03-30T05:07:37.586Z,88.49
2023-03-30T05:10:08.098Z,88.89
2023-03-30T05:12:34.885Z,88.48
2023-03-30T05:15:01.834Z,88.18
2023-03-30T05:17:28.808Z,88.34
2023-03-30T05:19:56.553Z,88.59
2023-03-30T05:22:23.483Z,87.72
2023-03-30T05:24:52.361Z,87.89
2023-03-30T05:27:19.785Z,88.08
2023-03-30T05:29:46.709Z,87.23
2023-03-30T05:32:13.648Z,87.41
2023-03-30T05:34:40.432Z,86.98
2023-03-30T05:37:07.521Z,86.60
2023-03-30T05:39:34.333Z,86.76
2023-03-30T05:42:01.861Z,85.89
2023-03-30T05:44:29.871Z,86.66
2023-03-30T05:46:56.662Z,87.12
2023-03-30T05:49:23.756Z,86.52
2023-03-30T05:51:51.141Z,86.65
2023-03-30T05:54:18.142Z,86.31
2023-03-30T05:56:44.945Z,86.54
2023-03-30T05:59:13.101Z,85.81
2023-03-30T06:01:40.286Z,84.98
2023-03-30T06:04:08.284Z,85.75
2023-03-30T06:06:35.405Z,85.23
2023-03-30T06:09:03.138Z,85.15
2023-03-30T06:11:30.434Z,85.02
2023-03-30T06:13:57.480Z,85.62
2023-03-30T06:16:24.733Z,86.08
2023-03-30T06:18:52.523Z,85.75
2023-03-30T06:21:19.467Z,86.32
2023-03-30T06:23:46.595Z,85.25
2023-03-30T06:26:13.815Z,84.67
2023-03-30T06:28:41.576Z,85.31
2023-03-30T06:31:12.425Z,83.87
2023-03-30T06:33:41.721Z,81.78
2023-03-30T06:36:14.094Z,82.84
2023-03-30T06:38:41.480Z,80.30
2023-03-30T06:41:08.570Z,80.16
2023-03-30T06:43:35.565Z,80.89
2023-03-30T06:46:02.618Z,81.10
2023-03-30T06:48:30.147Z,79.13
2023-03-30T06:50:57.203Z,78.17
2023-03-30T06:53:24.656Z,75.57
2023-03-30T06:55:53.692Z,75.99
2023-03-30T06:58:20.911Z,77.00
2023-03-30T07:00:49.332Z,77.12
2023-03-30T07:03:19.984Z,75.28
2023-03-30T07:05:50.998Z,75.87
2023-03-30T07:08:19.134Z,76.61
2023-03-30T07:10:47.478Z,77.12
2023-03-30T07:13:14.731Z,76.36
2023-03-30T07:15:42.074Z,76.67
2023-03-30T07:18:09.336Z,76.74
2023-03-30T07:20:36.671Z,77.68
2023-03-30T07:23:04.018Z,77.98
2023-03-30T07:25:31.996Z,78.89
2023-03-30T07:27:58.870Z,79.08
2023-03-30T07:30:26.429Z,79.99
2023-03-30T07:32:55.556Z,79.72
2023-03-30T07:35:24.600Z,77.01
2023-03-30T07:37:51.913Z,76.52
2023-03-30T07:40:20.187Z,75.05
2023-03-30T07:42:48.328Z,73.06
2023-03-30T07:45:16.433Z,70.70
2023-03-30T07:47:43.746Z,69.79
2023-03-30T07:50:10.844Z,66.46
2023-03-30T07:52:38.177Z,59.96
2023-03-30T07:55:05.561Z,62.84
2023-03-30T07:57:32.898Z,62.98
2023-03-30T07:59:59.861Z,67.05
2023-03-30T08:02:27.441Z,66.55
2023-03-30T08:04:54.573Z,66.51
2023-03-30T08:07:21.731Z,69.48
2023-03-30T08:09:48.946Z,70.90
2023-03-30T08:12:16.126Z,72.53
2023-03-30T08:14:43.023Z,72.45
2023-03-30T08:17:09.882Z,72.46
2023-03-30T08:19:39.584Z,73.06
2023-03-30T08:22:06.358Z,72.81
2023-03-30T08:24:33.355Z,71.43
2023-03-30T08:27:00.186Z,70.62
2023-03-30T08:29:27.075Z,69.24
2023-03-30T08:31:54.022Z,67.59
2023-03-30T08:34:21.024Z,67.28
2023-03-30T08:36:47.955Z,67.69
2023-03-30T08:39:15.763Z,66.28
2023-03-30T08:42:06.395Z,58.12
2023-03-30T08:44:43.123Z,45.72
2023-03-30T08:47:15.660Z,39.93
2023-03-30T08:50:00.414Z,34.98
2023-03-30T08:52:27.495Z,30.12
2023-03-30T08:54:55.150Z,29.34
2023-03-30T08:57:51.660Z,30.88
2023-03-30T09:00:38.705Z,35.48
2023-03-30T09:03:24.245Z,38.38
2023-03-30T09:06:08.031Z,44.55
2023-03-30T09:08:35.170Z,53.04
2023-03-30T09:11:07.393Z,54.94
2023-03-30T09:13:38.063Z,55.11
2023-03-30T09:16:30.087Z,46.42
2023-03-30T09:18:59.398Z,48.67
2023-03-30T09:21:29.558Z,42.71
2023-03-30T09:23:59.247Z,44.37
2023-03-30T09:26:50.485Z,46.97
2023-03-30T09:29:31.808Z,50.62
2023-03-30T09:32:06.044Z,55.71
2023-03-30T09:35:04.706Z,60.36
2023-03-30T09:37:31.725Z,65.30
2023-03-30T09:39:59.486Z,68.82
2023-03-30T09:42:52.251Z,71.04
2023-03-30T09:45:29.023Z,73.25
2023-03-30T09:47:57.217Z,74.55
2023-03-30T09:50:27.909Z,73.56
2023-03-30T09:53:04.060Z,67.02
2023-03-30T09:55:32.593Z,65.04
2023-03-30T09:58:21.481Z,64.45
2023-03-30T10:01:04.011Z,63.68
2023-03-30T10:03:31.065Z,63.04
2023-03-30T10:06:09.650Z,62.59
2023-03-30T10:08:43.383Z,63.48
2023-03-30T10:11:10.658Z,59.80
2023-03-30T10:13:42.102Z,48.62
2023-03-30T10:16:29.667Z,38.20
2023-03-30T10:19:01.676Z,36.07
2023-03-30T10:21:47.846Z,28.26
2023-03-30T10:24:14.741Z,27.69
2023-03-30T10:26:47.025Z,29.54
2023-03-30T10:29:18.548Z,26.58
2023-03-30T10:31:48.546Z,27.02
2023-03-30T10:34:32.418Z,35.97
2023-03-30T10:36:59.594Z,38.67
2023-03-30T10:39:29.982Z,42.28
2023-03-30T10:42:00.056Z,43.31
2023-03-30T10:44:46.497Z,45.33
2023-03-30T10:47:46.546Z,42.38
2023-03-30T10:50:43.559Z,45.89
2023-03-30T10:53:16.088Z,46.77
2023-03-30T10:56:09.419Z,42.97
2023-03-30T10:59:03.935Z,38.35
2023-03-30T11:01:37.168Z,41.15
2023-03-30T11:04:22.523Z,35.19
2023-03-30T11:06:53.542Z,28.66
2023-03-30T11:09:28.260Z,25.10
2023-03-30T11:12:11.598Z,33.35
2023-03-30T11:15:04.459Z,40.42
2023-03-30T11:17:43.900Z,45.64
2023-03-30T11:20:23.840Z,49.40
2023-03-30T11:23:02.155Z,51.96
2023-03-30T11:25:54.067Z,53.33
2023-03-30T11:28:26.639Z,54.09
2023-03-30T11:31:00.127Z,56.37
2023-03-30T11:33:45.034Z,57.44
2023-03-30T11:36:19.725Z,61.15
2023-03-30T11:38:54.963Z,61.18
2023-03-30T11:41:31.717Z,59.24
2023-03-30T11:43:58.705Z,58.34
2023-03-30T11:46:28.843Z,61.93
2023-03-30T11:48:56.182Z,65.07
2023-03-30T11:51:45.077Z,66.80
2023-03-30T11:55:02.425Z,72.30
2023-03-30T11:57:36.179Z,72.42
2023-03-30T12:00:15.177Z,71.20
2023-03-30T12:03:14.144Z,67.57
2023-03-30T12:05:53.554Z,63.79
2023-03-30T12:08:44.223Z,64.15
2023-03-30T12:11:24.060Z,64.04
2023-03-30T12:13:52.383Z,66.52
2023-03-30T12:16:32.079Z,67.42
2023-03-30T12:19:11.627Z,66.61
2023-03-30T12:21:58.287Z,65.33
2023-03-30T12:24:38.688Z,61.82
2023-03-30T12:27:07.485Z,61.00
2023-03-30T12:30:02.326Z,60.90
2023-03-30T12:32:31.392Z,55.37
2023-03-30T12:34:58.738Z,52.89
2023-03-30T12:37:38.246Z,55.10
2023-03-30T12:40:19.285Z,56.82
2023-03-30T12:43:11.218Z,56.92
2023-03-30T12:46:03.036Z,52.71
2023-03-30T12:49:03.615Z,54.25
2023-03-30T12:51:47.158Z,52.32
2023-03-30T12:54:43.318Z,51.35
2023-03-30T12:57:35.340Z,49.62
2023-03-30T13:00:41.756Z,50.66
2023-03-30T13:03:18.543Z,53.79
2023-03-30T13:05:51.602Z,54.44
2023-03-30T13:08:22.068Z,53.79
2023-03-30T13:10:49.067Z,54.15
2023-03-30T13:13:24.254Z,53.35
2023-03-30T13:15:55.918Z,51.86
2023-03-30T13:18:35.769Z,51.75
2023-03-30T13:21:17.765Z,50.09
2023-03-30T13:23:59.898Z,49.65
2023-03-30T13:26:34.872Z,50.21
2023-03-30T13:29:16.062Z,50.79
2023-03-30T13:32:21.068Z,51.31
2023-03-30T13:35:05.979Z,51.85
2023-03-30T13:38:08.371Z,49.57
2023-03-30T13:41:08.975Z,47.88
2023-03-30T13:43:54.233Z,46.61
2023-03-30T13:46:27.504Z,47.99
2023-03-30T13:49:25.132Z,49.04
2023-03-30T13:51:53.251Z,49.05
2023-03-30T13:54:29.283Z,48.84
2023-03-30T13:57:05.030Z,49.68
2023-03-30T13:59:36.446Z,50.73
2023-03-30T14:02:05.479Z,49.34
2023-03-30T14:04:37.375Z,49.77
2023-03-30T14:07:16.287Z,50.85
2023-03-30T14:09:45.423Z,51.30
2023-03-30T14:12:14.147Z,51.88
2023-03-30T14:14:47.243Z,52.56
2023-03-30T14:17:23.919Z,53.06
2023-03-30T14:20:21.219Z,52.88
2023-03-30T14:22:50.534Z,52.43
2023-03-30T14:25:27.417Z,52.88
2023-03-30T14:27:57.284Z,52.34
2023-03-30T14:30:29.709Z,52.61
2023-03-30T14:33:13.330Z,51.95
2023-03-30T14:35:47.111Z,52.38
2023-03-30T14:38:22.325Z,52.98
2023-03-30T14:40:51.937Z,52.10
2023-03-30T14:43:24.777Z,51.21
2023-03-30T14:45:57.452Z,50.71
2023-03-30T14:48:36.915Z,53.06
2023-03-30T14:51:09.923Z,53.30
2023-03-30T14:53:37.105Z,53.03
2023-03-30T14:56:05.295Z,51.97
2023-03-30T14:58:33.572Z,52.88
2023-03-30T15:01:09.180Z,54.22
2023-03-30T15:03:38.196Z,55.34
2023-03-30T15:06:07.470Z,56.79
2023-03-30T15:08:38.992Z,60.69
2023-03-30T15:11:24.509Z,61.64
2023-03-30T15:13:58.083Z,64.68
2023-03-30T15:16:30.312Z,66.88
2023-03-30T15:19:05.425Z,66.45
2023-03-30T15:21:36.384Z,66.49
2023-03-30T15:24:07.389Z,66.86
2023-03-30T15:26:34.848Z,67.16
2023-03-30T15:29:04.611Z,68.28
2023-03-30T15:31:32.024Z,67.11
2023-03-30T15:34:02.283Z,66.56
2023-03-30T15:36:39.649Z,65.03
2023-03-30T15:39:34.305Z,64.08
2023-03-30T15:42:08.098Z,63.38
2023-03-30T15:44:43.227Z,64.38
2023-03-30T15:47:28.593Z,64.50
2023-03-30T15:49:56.280Z,64.32
2023-03-30T15:52:35.048Z,63.69
2023-03-30T15:55:09.181Z,63.75
2023-03-30T15:57:37.864Z,63.85
2023-03-30T16:00:19.889Z,63.75
2023-03-30T16:02:57.977Z,63.22
2023-03-30T16:05:32.126Z,63.53
2023-03-30T16:07:59.499Z,63.96
2023-03-30T16:10:29.206Z,64.67
2023-03-30T16:12:58.383Z,64.43
2023-03-30T16:15:28.350Z,64.44
2023-03-30T16:17:55.714Z,65.26
2023-03-30T16:20:24.213Z,65.09
2023-03-30T16:22:51.626Z,65.57
2023-03-30T16:25:23.220Z,65.60
2023-03-30T16:27:55.755Z,65.42
2023-03-30T16:30:38.713Z,64.58
2023-03-30T16:33:06.029Z,64.60
2023-03-30T16:35:35.747Z,65.04
2023-03-30T16:38:02.623Z,65.22
2023-03-30T16:40:55.242Z,66.22
2023-03-30T16:43:22.466Z,65.68
2023-03-30T16:45:49.617Z,66.62
2023-03-30T16:48:17.234Z,66.27
2023-03-30T16:50:53.461Z,66.51
2023-03-30T16:53:20.911Z,67.29
2023-03-30T16:55:49.252Z,67.55
2023-03-30T16:58:16.639Z,68.03
2023-03-30T17:00:46.632Z,68.44
2023-03-30T17:03:14.406Z,69.38
2023-03-30T17:05:42.699Z,69.42
2023-03-30T17:08:23.122Z,69.47
2023-03-30T17:10:51.645Z,70.37
2023-03-30T17:13:18.919Z,70.02
2023-03-30T17:15:45.909Z,69.82
2023-03-30T17:18:15.318Z,69.59
2023-03-30T17:20:44.973Z,70.11
2023-03-30T17:23:11.879Z,70.08
2023-03-30T17:25:40.052Z,70.52
2023-03-30T17:28:10.404Z,72.25
2023-03-30T17:30:40.940Z,73.95
2023-03-30T17:33:13.026Z,75.49
2023-03-30T17:35:41.146Z,76.57
2023-03-30T17:38:09.442Z,77.24
2023-03-30T17:40:39.057Z,76.62
2023-03-30T17:43:07.599Z,76.99
2023-03-30T17:45:35.732Z,76.97
2023-03-30T17:48:03.936Z,76.76
2023-03-30T17:50:34.036Z,75.80
2023-03-30T17:53:01.350Z,75.28
2023-03-30T17:55:31.096Z,75.03
2023-03-30T17:57:58.088Z,75.26
2023-03-30T18:00:24.947Z,74.19
2023-03-30T18:02:52.839Z,73.70
2023-03-30T18:05:21.657Z,74.46
2023-03-30T18:07:49.073Z,74.66
2023-03-30T18:10:24.788Z,77.04
2023-03-30T18:12:52.581Z,78.26
2023-03-30T18:15:25.390Z,78.80
2023-03-30T18:17:52.919Z,79.11
2023-03-30T18:20:21.493Z,78.84
2023-03-30T18:22:51.063Z,79.55
2023-03-30T18:25:29.735Z,79.27
2023-03-30T18:27:59.634Z,79.47
2023-03-30T18:30:41.037Z,79.42
2023-03-30T18:33:08.379Z,79.81
2023-03-30T18:35:36.807Z,81.14
2023-03-30T18:38:05.275Z,80.44
2023-03-30T18:40:35.290Z,81.04
2023-03-30T18:43:02.283Z,80.37
2023-03-30T18:45:48.750Z,80.30
2023-03-30T18:48:17.928Z,80.40
2023-03-30T18:50:47.136Z,80.30
2023-03-30T18:53:26.001Z,80.53
2023-03-30T18:55:57.513Z,79.98
2023-03-30T18:58:27.599Z,80.82
2023-03-30T19:00:55.364Z,82.31
2023-03-30T19:03:25.465Z,82.79
2023-03-30T19:05:52.852Z,82.96
2023-03-30T19:08:22.045Z,83.54
2023-03-30T19:10:51.333Z,82.50
2023-03-30T19:13:20.149Z,82.93
2023-03-30T19:15:47.955Z,81.88
2023-03-30T19:18:16.240Z,82.18
2023-03-30T19:20:43.994Z,82.13
2023-03-30T19:23:14.020Z,82.17
2023-03-30T19:25:41.910Z,82.73
2023-03-30T19:28:09.611Z,82.73
2023-03-30T19:30:39.558Z,82.87
2023-03-30T19:33:10.442Z,83.47
2023-03-30T19:35:40.172Z,83.43
2023-03-30T19:38:06.920Z,83.81
2023-03-30T19:40:33.836Z,83.94
2023-03-30T19:43:03.316Z,84.51
2023-03-30T19:45:31.947Z,85.28
2023-03-30T19:47:59.205Z,84.32
2023-03-30T19:50:27.982Z,84.58
2023-03-30T19:52:56.612Z,85.17
2023-03-30T19:55:23.563Z,84.64
2023-03-30T19:57:50.443Z,84.72
2023-03-30T20:00:19.212Z,84.41
2023-03-30T20:02:49.924Z,85.02
2023-03-30T20:05:18.214Z,84.28
2023-03-30T20:07:45.669Z,84.32
2023-03-30T20:10:24.752Z,84.95
2023-03-30T20:12:52.655Z,85.36
2023-03-30T20:15:21.205Z,85.37
2023-03-30T20:17:48.387Z,85.19
2023-03-30T20:20:22.962Z,84.82
2023-03-30T20:22:53.659Z,84.57
2023-03-30T20:25:21.965Z,84.98
2023-03-30T20:27:49.697Z,85.20
2023-03-30T20:30:18.155Z,84.40
2023-03-30T20:32:53.039Z,85.08
2023-03-30T20:35:27.583Z,85.80
2023-03-30T20:37:55.639Z,85.66
2023-03-30T20:40:23.303Z,85.90
2023-03-30T20:42:50.333Z,86.16
2023-03-30T20:45:17.875Z,85.61
2023-03-30T20:47:50.321Z,86.48
2023-03-30T20:50:17.266Z,86.61
2023-03-30T20:52:44.190Z,86.68
2023-03-30T20:55:11.176Z,86.63
2023-03-30T20:57:38.953Z,86.22
2023-03-30T21:00:09.735Z,86.25
2023-03-30T21:02:36.542Z,86.97
2023-03-30T21:05:04.205Z,86.47
2023-03-30T21:07:32.356Z,86.74
2023-03-30T21:09:59.226Z,86.27
2023-03-30T21:12:26.525Z,86.94
2023-03-30T21:14:53.736Z,86.46
2023-03-30T21:17:20.640Z,85.85
2023-03-30T21:19:47.421Z,86.73
2023-03-30T21:22:14.262Z,86.16
2023-03-30T21:24:40.966Z,86.11
2023-03-30T21:27:08.079Z,86.20
2023-03-30T21:29:34.911Z,86.82
2023-03-30T21:32:01.822Z,86.86
2023-03-30T21:34:28.793Z,87.98
2023-03-30T21:36:55.768Z,87.82
2023-03-30T21:39:24.078Z,88.30
2023-03-30T21:41:51.170Z,87.30
2023-03-30T21:44:18.012Z,87.81
2023-03-30T21:46:44.999Z,87.02
2023-03-30T21:49:12.872Z,86.80
2023-03-30T21:51:39.769Z,87.23
2023-03-30T21:54:07.984Z,86.86
2023-03-30T21:56:34.838Z,87.18
2023-03-30T21:59:01.840Z,87.17
2023-03-30T22:01:29.028Z,86.58
2023-03-30T22:03:56.180Z,87.41
2023-03-30T22:06:23.841Z,87.17
2023-03-30T22:08:51.036Z,86.79
2023-03-30T22:11:26.271Z,86.44
2023-03-30T22:13:55.489Z,85.42
2023-03-30T22:16:28.480Z,86.42
2023-03-30T22:18:55.895Z,85.08
2023-03-30T22:21:25.980Z,86.18
2023-03-30T22:23:53.100Z,86.00
2023-03-30T22:26:20.125Z,85.93
2023-03-30T22:28:46.992Z,85.97
2023-03-30T22:31:15.573Z,86.90
2023-03-30T22:33:42.619Z,86.15
2023-03-30T22:36:19.877Z,86.96
2023-03-30T22:38:48.545Z,87.92
2023-03-30T22:41:15.761Z,87.31
2023-03-30T22:43:42.800Z,87.50
2023-03-30T22:46:10.358Z,88.38
2023-03-30T22:48:37.967Z,87.57
2023-03-30T22:51:08.560Z,87.18
2023-03-30T22:53:35.907Z,87.23
2023-03-30T22:56:03.055Z,86.60
2023-03-30T22:58:30.107Z,88.34
2023-03-30T23:01:07.267Z,88.58
2023-03-30T23:03:34.491Z,89.98
2023-03-30T23:06:01.961Z,88.66
2023-03-30T23:08:32.405Z,89.34
2023-03-30T23:11:05.210Z,89.29
2023-03-30T23:13:37.798Z,88.23
2023-03-30T23:16:08.986Z,88.26
2023-03-30T23:18:36.581Z,88.50
2023-03-30T23:21:06.688Z,88.02
2023-03-30T23:23:37.649Z,88.24
2023-03-30T23:26:10.651Z,88.33
2023-03-30T23:28:39.976Z,88.13
2023-03-30T23:31:18.223Z,87.93
2023-03-30T23:33:45.658Z,88.44
2023-03-30T23:36:13.952Z,88.78
2023-03-30T23:38:41.601Z,87.84
2023-03-30T23:41:09.093Z,88.16
2023-03-30T23:43:36.135Z,87.54
2023-03-30T23:46:03.913Z,88.11
2023-03-30T23:48:31.069Z,88.11
2023-03-30T23:50:58.276Z,88.95
2023-03-30T23:53:26.890Z,89.08
2023-03-30T23:55:55.548Z,89.64
2023-03-30T23:58:22.729Z,90.10
